Saint Columbans, Nebraska
Current Conditions -  °F | °C
As of 10:58 AM on Sunday 21 Dec 2014 (Local Time) from KOFF Reporting Station
Overcast Overcast  
Wind Chill: 32°   Ceiling: 700
Heat Index: 40°   Visibility: 3mi
Dew Point: 38°   Wind: 15mph
Humidity: 91%   Direction: 160°SSE
Pressure: 29.85"   Gusts: NA
Location:  41.1°N, 95.87°W
Report Text: KOFF 211658Z 16013KT 3SM OVC007 05/03 A2985 RMK AO2A SLP120 T00450032
Loading
Personal Weather Stations






























Interactive Weather Map New forecast layout! Learn more

10-Day Weather Forecast

Advertisements
Track Severe Weather on mobile